Harrisburg International Airport
KMDT : now visible

Airfield :











YOU CAN JOIN US ON...

 
LOGIN :

Register | Disclaimer

   EN    FR    IT 

 









Legend :    VFR   Marginal VFR   IFR   Intensive IFR   Very Intensive IFR
Visi :
Ceiling :
>= 8 km
>= 3000ft
5 to 8 km
1000 to 3000 ft
1500m to 5 km
500 to 1000 ft
800 to 1500m
200 to 500 ft
< 800m
< 200 ft
Symbols :   Thunderstorms  Fog  Heavy snow  Heavy precipitations  Wind > 20 kt






- Airport Elevation : 310 ft
- IATA code : MDT


KMDT - Harrisburg International

CURRENT METAR :
  • 231756Z 28004KT 10SM FEW036 BKN250 26/18 A2993 RMK AO2 SLP131 60004 T02560178 10261 20200 55007

EXPIRED METARs :
  • 231656Z 29003KT 10SM FEW025 BKN190 BKN250 24/18 A2992 RMK AO2 SLP131 T02440178
  • 231556Z 27003KT 10SM FEW025 BKN140 OVC250 23/18 A2994 RMK AO2 SLP137 T02280178
  • 231456Z 29004KT 10SM FEW050 BKN150 OVC250 21/17 A2995 RMK AO2 SLP140 60004 T02110172 51012
  • 231356Z 30004KT 10SM FEW050 BKN140 OVC250 21/18 A2993 RMK AO2 RAE02 SLP133 P0001 T02060178

TAF KMDT
Valid from the 23 at 18:00 until the 24 at 18:00 UTC


231740Z 2318/2418 28005KT P6SM FEW025 BKN140 OVC250
FM240300 30002KT P6SM BKN050 OVC070
FM241400 30003KT P6SM BKN100
KZNY FIR / North America



MET'MAP, your aeronautical weather chart ! - Copyright ORBIFLY December 2007 - Disclaimer

ORBIFLY MET'MAP TEAM :

Programming & Development : Alexandra Zaïnal
Original concept : Baudouin d'Aumeries
Technical & hardware support : Manuel Goepfert
Assistance : Marc-Olivier Méhu




SOURCES & CREDITS :

   NOAA       Earth
Advisory